Pride Of Bruges — PGJW — position and weather

sailwx.info

Track history (hours):
 
Tides and Currents Weather Stations Pressure Air Temp Water Temp Dewpoint Dewpoint Depression Visibility Wind Speed Wind Dir Waves Ship Positions

Pride Of Bruges

Operator: P&O Ferries

Last reported at 2017-Dec-11 17:00 UTC. Time now 2017-Dec-12 04:27 UTC.
Position N 51°20' E 003°11'.

Length 180 m; draft 5.7 m.

Type: Ship. MMSI: 244387000.

Date/timePositionNaut miles runAvg speedWind from/ knotsBaromVisibWave heightAir tempDewpointWater temp
2017-Dec-11 17:00N 51°20' E 003°11'0 0.0
2017-Dec-11 16:30N 51°20' E 003°11'0 0.0
2017-Dec-11 15:59N 51°20' E 003°11'0 0.0
2017-Dec-11 15:29N 51°20' E 003°11'0 0.0
2017-Dec-11 14:59N 51°20' E 003°11'0 0.0
2017-Dec-11 14:29N 51°20' E 003°11'0 0.0
2017-Dec-11 13:59N 51°20' E 003°11'0 0.0
2017-Dec-11 13:28N 51°20' E 003°11'0 0.0
2017-Dec-11 12:58N 51°20' E 003°11'0 0.0
2017-Dec-11 12:28N 51°20' E 003°11'0 0.0
2017-Dec-11 11:55N 51°20' E 003°11'0 0.0
2017-Dec-11 11:28N 51°20' E 003°11'0 0.0
2017-Dec-11 11:00N 51°20' E 003°11'0 0.0
2017-Dec-11 10:30N 51°20' E 003°11'0 0.0
2017-Dec-11 10:00N 51°20' E 003°11'0 0.0
2017-Dec-11 09:30N 51°20' E 003°11'0 0.0
2017-Dec-11 08:59N 51°20' E 003°11'0 0.0
2017-Dec-11 08:29N 51°20' E 003°11'0 0.1
2017-Dec-11 08:00N 51°20' E 003°11'4 8.5
2017-Dec-11 07:31N 51°24' E 003°07'612.1
2017-Dec-11 07:00N 51°26' E 002°58'713.9
2017-Dec-11 06:30N 51°30' E 002°49'6415.6
2017-Dec-11 02:24N 52°29' E 002°06'717.9
2017-Dec-11 02:00N 52°35' E 002°02'918.2
2017-Dec-11 01:31N 52°43' E 001°55'917.6
2017-Dec-11 01:01N 52°49' E 001°44'917.9
2017-Dec-11 00:31N 52°54' E 001°32'917.9
2017-Dec-11 00:01N 52°58' E 001°19'917.3
2017-Dec-10 23:29N 53°02' E 001°06'3616.8
2017-Dec-10 21:21N 53°28' E 000°24'616.3
2017-Dec-10 21:00N 53°31' E 000°16'714.3
2017-Dec-10 20:30N 53°34' E 000°05'714.6
2017-Dec-10 20:01N 53°37' W 000°06'611.1
2017-Dec-10 19:30N 53°41' W 000°13'4 8.4
2017-Dec-10 19:01N 53°44' W 000°16'0 0.1
2017-Dec-10 18:30N 53°44' W 000°16'0 0.2
2017-Dec-10 18:01N 53°45' W 000°16'0 0.0
2017-Dec-10 17:28N 53°45' W 000°16'0 0.0
2017-Dec-10 17:00N 53°45' W 000°16'0 0.0
2017-Dec-10 16:30N 53°45' W 000°16'0 0.0
2017-Dec-10 16:00N 53°45' W 000°16'0 0.0
2017-Dec-10 15:30N 53°45' W 000°16'0 0.0
2017-Dec-10 15:00N 53°45' W 000°16'0 0.0
2017-Dec-10 14:29N 53°45' W 000°16'0 0.0
2017-Dec-10 13:59N 53°45' W 000°16'0 0.0
2017-Dec-10 13:29N 53°45' W 000°16'0 0.0
2017-Dec-10 12:59N 53°45' W 000°16'0 0.0
2017-Dec-10 12:28N 53°45' W 000°16'0 0.0
2017-Dec-10 11:58N 53°45' W 000°16'0 0.0
2017-Dec-10 11:28N 53°45' W 000°16'0 0.0
2017-Dec-10 10:58N 53°45' W 000°16'0 0.0
2017-Dec-10 10:28N 53°45' W 000°16'0 0.0
2017-Dec-10 09:57N 53°45' W 000°16'0 0.0
2017-Dec-10 09:30N 53°45' W 000°16'0 0.1
2017-Dec-10 09:00N 53°45' W 000°16'0 0.2
2017-Dec-10 08:30N 53°44' W 000°16'0 1.0
2017-Dec-10 08:00N 53°44' W 000°16'713.3
2017-Dec-10 07:30N 53°38' W 000°10'612.0
2017-Dec-10 07:00N 53°36' W 000°01'714.9
2017-Dec-10 06:30N 53°33' E 000°10'3713.9
2017-Dec-10 03:49N 53°16' E 001°06'514.7
2017-Dec-10 03:30N 53°13' E 001°12'714.9
2017-Dec-10 03:01N 53°07' E 001°20'714.8
2017-Dec-10 02:31N 53°02' E 001°29'714.6
2017-Dec-10 02:00N 52°56' E 001°36'714.1
2017-Dec-10 01:30N 52°51' E 001°44'713.5
2017-Dec-10 01:00N 52°47' E 001°53'713.4
2017-Dec-10 00:30N 52°41' E 001°58'713.4
2017-Dec-10 00:00N 52°35' E 002°03'6015.2
2017-Dec-09 20:05N 51°40' E 002°42'115.6
2017-Dec-09 19:59N 51°39' E 002°44'815.6
2017-Dec-09 19:30N 51°33' E 002°51'815.4
2017-Dec-09 19:00N 51°27' E 002°58'714.1
2017-Dec-09 18:30N 51°24' E 003°08'4 7.8
2017-Dec-09 18:01N 51°20' E 003°11'0 0.1
2017-Dec-09 17:28N 51°20' E 003°11'0 0.0
2017-Dec-09 17:01N 51°20' E 003°11'0 0.0
2017-Dec-09 16:30N 51°20' E 003°11'0 0.0
2017-Dec-09 16:00N 51°20' E 003°11'0 0.0
2017-Dec-09 15:30N 51°20' E 003°11'0 0.0
2017-Dec-09 15:00N 51°20' E 003°11'0 0.0
2017-Dec-09 14:29N 51°20' E 003°11'0 0.0
2017-Dec-09 13:59N 51°20' E 003°11'0 0.0
2017-Dec-09 13:29N 51°20' E 003°11'0 0.0
2017-Dec-09 12:59N 51°20' E 003°11'0 0.0
2017-Dec-09 12:29N 51°20' E 003°11'0 0.0
2017-Dec-09 11:58N 51°20' E 003°11'0 0.0
2017-Dec-09 11:28N 51°20' E 003°11'0 0.0
2017-Dec-09 10:58N 51°20' E 003°11'0 0.0
2017-Dec-09 10:28N 51°20' E 003°11'0 0.0
2017-Dec-09 10:00N 51°20' E 003°11'0 0.0
2017-Dec-09 09:30N 51°20' E 003°11'0 0.0
2017-Dec-09 08:57N 51°20' E 003°11'0 0.0
2017-Dec-09 08:30N 51°20' E 003°11'0 0.7
2017-Dec-09 08:00N 51°21' E 003°12'611.9
2017-Dec-09 07:30N 51°24' E 003°04'714.7
2017-Dec-09 07:00N 51°28' E 002°54'814.8
2017-Dec-09 06:29N 51°33' E 002°45'3014.0
2017-Dec-09 04:21N 52°01' E 002°27'3014.2
2017-Dec-09 02:14N 52°28' E 002°07'314.6
2017-Dec-09 02:00N 52°32' E 002°05'815.6
2017-Dec-09 01:30N 52°39' E 002°00'815.9
2017-Dec-09 01:00N 52°45' E 001°53'816.5
2017-Dec-09 00:30N 52°50' E 001°42'816.9
2017-Dec-09 00:00N 52°55' E 001°30'917.2
2017-Dec-08 23:30N 52°59' E 001°18'917.2
2017-Dec-08 23:00N 53°03' E 001°05'3817.2
2017-Dec-08 20:48N 53°30' E 000°20'516.4
2017-Dec-08 20:30N 53°33' E 000°13'714.5
2017-Dec-08 20:00N 53°35' E 000°02'714.3
2017-Dec-08 19:30N 53°38' W 000°09'612.3
2017-Dec-08 19:00N 53°43' W 000°15'1 3.0
2017-Dec-08 18:31N 53°44' W 000°16'0 0.2
2017-Dec-08 17:59N 53°45' W 000°16'0 0.0
2017-Dec-08 17:29N 53°45' W 000°16'0 0.0
2017-Dec-08 16:59N 53°45' W 000°16'0 0.0
2017-Dec-08 16:28N 53°45' W 000°16'0 0.0
2017-Dec-08 15:58N 53°45' W 000°16'0 0.0
2017-Dec-08 15:28N 53°45' W 000°16'0 0.0
2017-Dec-08 15:00N 53°45' W 000°16'0 0.0
2017-Dec-08 14:30N 53°45' W 000°16'0 0.0
2017-Dec-08 14:01N 53°45' W 000°16'0 0.0
2017-Dec-08 13:31N 53°45' W 000°16'0 0.0
2017-Dec-08 13:00N 53°45' W 000°16'0 0.0
2017-Dec-08 12:30N 53°45' W 000°16'0 0.0
2017-Dec-08 12:01N 53°45' W 000°16'0 0.0
2017-Dec-08 11:30N 53°45' W 000°16'0 0.0
2017-Dec-08 11:00N 53°45' W 000°16'0 0.0
2017-Dec-08 10:31N 53°45' W 000°16'0 0.0
2017-Dec-08 10:00N 53°45' W 000°16'0 0.0
2017-Dec-08 09:30N 53°45' W 000°16'0 0.0
2017-Dec-08 09:01N 53°45' W 000°16'0 0.0
2017-Dec-08 08:31N 53°45' W 000°16'0 0.2
2017-Dec-08 08:00N 53°45' W 000°16'1 1.3
2017-Dec-08 07:30N 53°44' W 000°16'714.3
2017-Dec-08 07:00N 53°38' W 000°09'816.8
2017-Dec-08 06:31N 53°35' E 000°04'815.4
2017-Dec-08 06:01N 53°32' E 000°16'3015.7
2017-Dec-08 04:04N 53°10' E 000°52'117.7
2017-Dec-08 03:59N 53°09' E 000°54'817.5
2017-Dec-08 03:30N 53°03' E 001°04'917.1
2017-Dec-08 03:01N 52°60' E 001°17'917.2
2017-Dec-08 02:30N 52°56' E 001°30'816.5
2017-Dec-08 02:00N 52°51' E 001°41'816.0
2017-Dec-08 01:30N 52°46' E 001°51'815.3
2017-Dec-08 01:01N 52°40' E 001°59'7015.0
2017-Dec-07 20:23N 51°37' E 002°46'514.7
2017-Dec-07 20:00N 51°33' E 002°51'815.0
2017-Dec-07 19:30N 51°27' E 002°59'815.2
2017-Dec-07 19:00N 51°23' E 003°09'3 5.7
2017-Dec-07 18:30N 51°20' E 003°11'0 0.0
2017-Dec-07 18:00N 51°20' E 003°11'0 0.0
2017-Dec-07 17:30N 51°20' E 003°11'0 0.0
2017-Dec-07 16:59N 51°20' E 003°11'0 0.0
2017-Dec-07 16:29N 51°20' E 003°11'0 0.0
2017-Dec-07 15:59N 51°20' E 003°11'0 0.0
2017-Dec-07 15:29N 51°20' E 003°11'0 0.0
2017-Dec-07 14:58N 51°20' E 003°11'0 0.0
2017-Dec-07 14:28N 51°20' E 003°11'0 0.0
2017-Dec-07 13:58N 51°20' E 003°11'0 0.0
2017-Dec-07 13:28N 51°20' E 003°11'0 0.0
2017-Dec-07 12:57N 51°20' E 003°11'0 0.0
2017-Dec-07 12:30N 51°20' E 003°11'0 0.0
2017-Dec-07 12:00N 51°20' E 003°11'0 0.0
2017-Dec-07 11:27N 51°20' E 003°11'0 0.0
2017-Dec-07 11:00N 51°20' E 003°11'0 0.0
2017-Dec-07 10:29N 51°20' E 003°11'0 0.0
2017-Dec-07 09:59N 51°20' E 003°11'0 0.0
2017-Dec-07 09:26N 51°20' E 003°11'0 0.0
2017-Dec-07 08:59N 51°20' E 003°11'0 0.0
2017-Dec-07 08:30N 51°20' E 003°11'1 2.9
2017-Dec-07 08:00N 51°22' E 003°11'714.8
2017-Dec-07 07:31N 51°25' E 003°01'816.3
2017-Dec-07 07:01N 51°30' E 002°50'1315.3
2017-Dec-07 06:10N 51°40' E 002°38'414.6
2017-Dec-07 05:53N 51°44' E 002°36'4713.7
2017-Dec-07 02:26N 52°28' E 002°08'614.5
2017-Dec-07 02:01N 52°34' E 002°03'714.7
2017-Dec-07 01:31N 52°40' E 001°57'815.4
2017-Dec-07 01:00N 52°46' E 001°50'917.4
2017-Dec-07 00:31N 52°51' E 001°38'917.4
2017-Dec-07 00:01N 52°56' E 001°26'917.8
2017-Dec-06 23:30N 53°00' E 001°13'918.0
2017-Dec-06 23:00N 53°05' E 001°01'3517.1
2017-Dec-06 20:56N 53°30' E 000°18'  
2017-Dec-04 10:29N 53°45' W 000°16'0 0.0
2017-Dec-04 09:59N 53°45' W 000°16'0 0.0
2017-Dec-04 09:28N 53°45' W 000°16'0 0.0
2017-Dec-04 08:58N 53°45' W 000°16'0 0.0
2017-Dec-04 08:30N 53°45' W 000°16'0 0.2
2017-Dec-04 08:00N 53°44' W 000°16'0 0.9
2017-Dec-04 07:30N 53°44' W 000°16'612.6
2017-Dec-04 07:00N 53°39' W 000°10'714.7
2017-Dec-04 06:30N 53°35' E 000°01'815.2
2017-Dec-04 06:01N 53°33' E 000°13'3213.2
2017-Dec-04 03:36N 53°19' E 001°01'114.2
2017-Dec-04 03:31N 53°18' E 001°02'714.3
2017-Dec-04 03:01N 53°13' E 001°10'815.3
2017-Dec-04 02:31N 53°07' E 001°18'816.3
2017-Dec-04 02:01N 53°01' E 001°27'917.1
2017-Dec-04 01:31N 52°55' E 001°38'917.1
2017-Dec-04 01:00N 52°49' E 001°48'816.2
2017-Dec-04 00:31N 52°44' E 001°58'816.4
2017-Dec-04 00:01N 52°37' E 002°04'815.2
2017-Dec-03 23:30N 52°30' E 002°10'5913.8
2017-Dec-03 19:15N 51°36' E 002°47'415.3
2017-Dec-03 19:00N 51°33' E 002°51'815.9
2017-Dec-03 18:30N 51°27' E 002°59'816.4
2017-Dec-03 18:00N 51°23' E 003°10'2 4.5
2017-Dec-03 17:29N 51°20' E 003°11'0 0.0
2017-Dec-03 16:59N 51°20' E 003°11'0 0.0
2017-Dec-03 16:29N 51°20' E 003°11'0 0.0
2017-Dec-03 15:57N 51°20' E 003°11'0 0.0
2017-Dec-03 15:28N 51°20' E 003°11'0 0.0
2017-Dec-03 14:58N 51°20' E 003°11'0 0.0
2017-Dec-03 14:28N 51°20' E 003°11'0 0.0
2017-Dec-03 14:01N 51°20' E 003°11'0 0.0
2017-Dec-03 13:30N 51°20' E 003°11'0 0.0
2017-Dec-03 13:00N 51°20' E 003°11'0 0.0
2017-Dec-03 12:30N 51°20' E 003°11'0 0.0
2017-Dec-03 12:00N 51°20' E 003°11'0 0.0
2017-Dec-03 11:29N 51°20' E 003°11'0 0.0
2017-Dec-03 10:56N 51°20' E 003°11'0 0.0
2017-Dec-03 10:29N 51°20' E 003°11'0 0.0
2017-Dec-03 09:59N 51°20' E 003°11'0 0.0
2017-Dec-03 09:29N 51°20' E 003°11'0 0.0
2017-Dec-03 08:58N 51°20' E 003°11'0 0.0
2017-Dec-03 08:30N 51°20' E 003°11'2 4.5
2017-Dec-03 08:01N 51°23' E 003°10'713.8
2017-Dec-03 07:30N 51°25' E 002°60'713.6
2017-Dec-03 07:00N 51°29' E 002°51'914.4
2017-Dec-03 06:23N 51°35' E 002°41'5714.7
2017-Dec-03 02:31N 52°28' E 002°08'114.8
2017-Dec-03 02:25N 52°30' E 002°07'614.7
2017-Dec-03 02:00N 52°35' E 002°03'714.4
2017-Dec-03 01:30N 52°41' E 001°57'713.9
2017-Dec-03 01:00N 52°47' E 001°50'714.5
2017-Dec-03 00:30N 52°51' E 001°40'714.1
2017-Dec-03 00:00N 52°55' E 001°31'714.3
2017-Dec-02 23:30N 52°58' E 001°20'714.9
2017-Dec-02 23:00N 53°01' E 001°08'3915.1
2017-Dec-02 20:25N 53°29' E 000°22'615.0
2017-Dec-02 20:00N 53°32' E 000°14'918.6
2017-Dec-02 19:30N 53°35' W 000°01'917.6
2017-Dec-02 19:00N 53°41' W 000°13'4 8.8
2017-Dec-02 18:30N 53°44' W 000°16'0 0.2
2017-Dec-02 18:01N 53°45' W 000°16'0 0.0
2017-Dec-02 17:30N 53°45' W 000°16'0 0.0
2017-Dec-02 17:00N 53°45' W 000°16'0 0.0
2017-Dec-02 16:30N 53°45' W 000°16'0 0.0
2017-Dec-02 16:01N 53°45' W 000°16'0 0.0
2017-Dec-02 15:30N 53°45' W 000°16'0 0.0
2017-Dec-02 15:00N 53°45' W 000°16'0 0.0
2017-Dec-02 14:30N 53°45' W 000°16'0 0.0
2017-Dec-02 14:00N 53°45' W 000°16'0 0.0
2017-Dec-02 13:30N 53°45' W 000°16'0 0.0
2017-Dec-02 13:00N 53°45' W 000°16'0 0.0
2017-Dec-02 12:30N 53°45' W 000°16'0 0.0
2017-Dec-02 12:00N 53°45' W 000°16'0 0.0
2017-Dec-02 11:30N 53°45' W 000°16'0 0.0
2017-Dec-02 11:00N 53°45' W 000°16'0 0.0
2017-Dec-02 10:30N 53°45' W 000°16'0 0.0
2017-Dec-02 10:00N 53°45' W 000°16'0 0.0
2017-Dec-02 09:30N 53°45' W 000°16'0 0.5
2017-Dec-02 09:00N 53°45' W 000°16'0 0.6
2017-Dec-02 08:30N 53°44' W 000°16'2 4.9
2017-Dec-02 08:00N 53°42' W 000°14'510.7
2017-Dec-02 07:30N 53°38' W 000°09'611.9
2017-Dec-02 07:00N 53°35' W 000°00'612.5
2017-Dec-02 06:30N 53°33' E 000°10'914.4
2017-Dec-02 05:52N 53°29' E 000°24'2514.1
2017-Dec-02 04:06N 53°11' E 000°51'113.8
2017-Dec-02 04:00N 53°10' E 000°53'712.3
2017-Dec-02 03:25N 53°05' E 001°02'512.4
2017-Dec-02 03:00N 53°02' E 001°09'713.5
2017-Dec-02 02:30N 52°59' E 001°19'713.9
2017-Dec-02 02:01N 52°56' E 001°29'815.1
2017-Dec-02 01:31N 52°53' E 001°40'815.4
2017-Dec-02 01:01N 52°48' E 001°51'816.0
2017-Dec-02 00:31N 52°42' E 001°58'815.7
2017-Dec-02 00:01N 52°35' E 002°04'4915.2
2017-Dec-01 20:48N 51°50' E 002°35'514.7
2017-Dec-01 20:29N 51°45' E 002°38'715.3
2017-Dec-01 20:00N 51°39' E 002°44'715.2
2017-Dec-01 19:30N 51°33' E 002°51'815.3
2017-Dec-01 19:00N 51°27' E 002°58'714.3
2017-Dec-01 18:31N 51°24' E 003°09'4 7.5
2017-Dec-01 18:01N 51°20' E 003°12'0 0.4
2017-Dec-01 17:28N 51°20' E 003°11'  
Track history (hours):
 
Tides and Currents Weather Stations Pressure Air Temp Water Temp Dewpoint Dewpoint Depression Visibility Wind Speed Wind Dir Waves Ship Positions

Pride Of Bruges

Operator: P&O Ferries

Last reported at 2017-Dec-11 17:00 UTC. Time now 2017-Dec-12 04:27 UTC.
Position N 51°20' E 003°11'.

Length 180 m; draft 5.7 m.

Type: Ship. MMSI: 244387000.

Date/timePositionNaut miles runAvg speedWind from/ knotsBaromVisibWave heightAir tempDewpointWater temp
2017-Dec-11 17:00N 51°20' E 003°11'0 0.0
2017-Dec-11 16:30N 51°20' E 003°11'0 0.0
2017-Dec-11 15:59N 51°20' E 003°11'0 0.0
2017-Dec-11 15:29N 51°20' E 003°11'0 0.0
2017-Dec-11 14:59N 51°20' E 003°11'0 0.0
2017-Dec-11 14:29N 51°20' E 003°11'0 0.0
2017-Dec-11 13:59N 51°20' E 003°11'0 0.0
2017-Dec-11 13:28N 51°20' E 003°11'0 0.0
2017-Dec-11 12:58N 51°20' E 003°11'0 0.0
2017-Dec-11 12:28N 51°20' E 003°11'0 0.0
2017-Dec-11 11:55N 51°20' E 003°11'0 0.0
2017-Dec-11 11:28N 51°20' E 003°11'0 0.0
2017-Dec-11 11:00N 51°20' E 003°11'0 0.0
2017-Dec-11 10:30N 51°20' E 003°11'0 0.0
2017-Dec-11 10:00N 51°20' E 003°11'0 0.0
2017-Dec-11 09:30N 51°20' E 003°11'0 0.0
2017-Dec-11 08:59N 51°20' E 003°11'0 0.0
2017-Dec-11 08:29N 51°20' E 003°11'0 0.1
2017-Dec-11 08:00N 51°20' E 003°11'4 8.5
2017-Dec-11 07:31N 51°24' E 003°07'612.1
2017-Dec-11 07:00N 51°26' E 002°58'713.9
2017-Dec-11 06:30N 51°30' E 002°49'6415.6
2017-Dec-11 02:24N 52°29' E 002°06'717.9
2017-Dec-11 02:00N 52°35' E 002°02'918.2
2017-Dec-11 01:31N 52°43' E 001°55'917.6
2017-Dec-11 01:01N 52°49' E 001°44'917.9
2017-Dec-11 00:31N 52°54' E 001°32'917.9
2017-Dec-11 00:01N 52°58' E 001°19'917.3
2017-Dec-10 23:29N 53°02' E 001°06'3616.8
2017-Dec-10 21:21N 53°28' E 000°24'616.3
2017-Dec-10 21:00N 53°31' E 000°16'714.3
2017-Dec-10 20:30N 53°34' E 000°05'714.6
2017-Dec-10 20:01N 53°37' W 000°06'611.1
2017-Dec-10 19:30N 53°41' W 000°13'4 8.4
2017-Dec-10 19:01N 53°44' W 000°16'0 0.1
2017-Dec-10 18:30N 53°44' W 000°16'0 0.2
2017-Dec-10 18:01N 53°45' W 000°16'0 0.0
2017-Dec-10 17:28N 53°45' W 000°16'0 0.0
2017-Dec-10 17:00N 53°45' W 000°16'0 0.0
2017-Dec-10 16:30N 53°45' W 000°16'0 0.0
2017-Dec-10 16:00N 53°45' W 000°16'0 0.0
2017-Dec-10 15:30N 53°45' W 000°16'0 0.0
2017-Dec-10 15:00N 53°45' W 000°16'0 0.0
2017-Dec-10 14:29N 53°45' W 000°16'0 0.0
2017-Dec-10 13:59N 53°45' W 000°16'0 0.0
2017-Dec-10 13:29N 53°45' W 000°16'0 0.0
2017-Dec-10 12:59N 53°45' W 000°16'0 0.0
2017-Dec-10 12:28N 53°45' W 000°16'0 0.0
2017-Dec-10 11:58N 53°45' W 000°16'0 0.0
2017-Dec-10 11:28N 53°45' W 000°16'0 0.0
2017-Dec-10 10:58N 53°45' W 000°16'0 0.0
2017-Dec-10 10:28N 53°45' W 000°16'0 0.0
2017-Dec-10 09:57N 53°45' W 000°16'0 0.0
2017-Dec-10 09:30N 53°45' W 000°16'0 0.1
2017-Dec-10 09:00N 53°45' W 000°16'0 0.2
2017-Dec-10 08:30N 53°44' W 000°16'0 1.0
2017-Dec-10 08:00N 53°44' W 000°16'713.3
2017-Dec-10 07:30N 53°38' W 000°10'612.0
2017-Dec-10 07:00N 53°36' W 000°01'714.9
2017-Dec-10 06:30N 53°33' E 000°10'3713.9
2017-Dec-10 03:49N 53°16' E 001°06'514.7
2017-Dec-10 03:30N 53°13' E 001°12'714.9
2017-Dec-10 03:01N 53°07' E 001°20'714.8
2017-Dec-10 02:31N 53°02' E 001°29'714.6
2017-Dec-10 02:00N 52°56' E 001°36'714.1
2017-Dec-10 01:30N 52°51' E 001°44'713.5
2017-Dec-10 01:00N 52°47' E 001°53'713.4
2017-Dec-10 00:30N 52°41' E 001°58'713.4
2017-Dec-10 00:00N 52°35' E 002°03'6015.2
2017-Dec-09 20:05N 51°40' E 002°42'115.6
2017-Dec-09 19:59N 51°39' E 002°44'815.6
2017-Dec-09 19:30N 51°33' E 002°51'815.4
2017-Dec-09 19:00N 51°27' E 002°58'714.1
2017-Dec-09 18:30N 51°24' E 003°08'4 7.8
2017-Dec-09 18:01N 51°20' E 003°11'0 0.1
2017-Dec-09 17:28N 51°20' E 003°11'0 0.0
2017-Dec-09 17:01N 51°20' E 003°11'0 0.0
2017-Dec-09 16:30N 51°20' E 003°11'0 0.0
2017-Dec-09 16:00N 51°20' E 003°11'0 0.0
2017-Dec-09 15:30N 51°20' E 003°11'0 0.0
2017-Dec-09 15:00N 51°20' E 003°11'0 0.0
2017-Dec-09 14:29N 51°20' E 003°11'0 0.0
2017-Dec-09 13:59N 51°20' E 003°11'0 0.0
2017-Dec-09 13:29N 51°20' E 003°11'0 0.0
2017-Dec-09 12:59N 51°20' E 003°11'0 0.0
2017-Dec-09 12:29N 51°20' E 003°11'0 0.0
2017-Dec-09 11:58N 51°20' E 003°11'0 0.0
2017-Dec-09 11:28N 51°20' E 003°11'0 0.0
2017-Dec-09 10:58N 51°20' E 003°11'0 0.0
2017-Dec-09 10:28N 51°20' E 003°11'0 0.0
2017-Dec-09 10:00N 51°20' E 003°11'0 0.0
2017-Dec-09 09:30N 51°20' E 003°11'0 0.0
2017-Dec-09 08:57N 51°20' E 003°11'0 0.0
2017-Dec-09 08:30N 51°20' E 003°11'0 0.7
2017-Dec-09 08:00N 51°21' E 003°12'611.9
2017-Dec-09 07:30N 51°24' E 003°04'714.7
2017-Dec-09 07:00N 51°28' E 002°54'814.8
2017-Dec-09 06:29N 51°33' E 002°45'3014.0
2017-Dec-09 04:21N 52°01' E 002°27'3014.2
2017-Dec-09 02:14N 52°28' E 002°07'314.6
2017-Dec-09 02:00N 52°32' E 002°05'815.6
2017-Dec-09 01:30N 52°39' E 002°00'815.9
2017-Dec-09 01:00N 52°45' E 001°53'816.5
2017-Dec-09 00:30N 52°50' E 001°42'816.9
2017-Dec-09 00:00N 52°55' E 001°30'917.2
2017-Dec-08 23:30N 52°59' E 001°18'917.2
2017-Dec-08 23:00N 53°03' E 001°05'3817.2
2017-Dec-08 20:48N 53°30' E 000°20'516.4
2017-Dec-08 20:30N 53°33' E 000°13'714.5
2017-Dec-08 20:00N 53°35' E 000°02'714.3
2017-Dec-08 19:30N 53°38' W 000°09'612.3
2017-Dec-08 19:00N 53°43' W 000°15'1 3.0
2017-Dec-08 18:31N 53°44' W 000°16'0 0.2
2017-Dec-08 17:59N 53°45' W 000°16'0 0.0
2017-Dec-08 17:29N 53°45' W 000°16'0 0.0
2017-Dec-08 16:59N 53°45' W 000°16'0 0.0
2017-Dec-08 16:28N 53°45' W 000°16'0 0.0
2017-Dec-08 15:58N 53°45' W 000°16'0 0.0
2017-Dec-08 15:28N 53°45' W 000°16'0 0.0
2017-Dec-08 15:00N 53°45' W 000°16'0 0.0
2017-Dec-08 14:30N 53°45' W 000°16'0 0.0
2017-Dec-08 14:01N 53°45' W 000°16'0 0.0
2017-Dec-08 13:31N 53°45' W 000°16'0 0.0
2017-Dec-08 13:00N 53°45' W 000°16'0 0.0
2017-Dec-08 12:30N 53°45' W 000°16'0 0.0
2017-Dec-08 12:01N 53°45' W 000°16'0 0.0
2017-Dec-08 11:30N 53°45' W 000°16'0 0.0
2017-Dec-08 11:00N 53°45' W 000°16'0 0.0
2017-Dec-08 10:31N 53°45' W 000°16'0 0.0
2017-Dec-08 10:00N 53°45' W 000°16'0 0.0
2017-Dec-08 09:30N 53°45' W 000°16'0 0.0
2017-Dec-08 09:01N 53°45' W 000°16'0 0.0
2017-Dec-08 08:31N 53°45' W 000°16'0 0.2
2017-Dec-08 08:00N 53°45' W 000°16'1 1.3
2017-Dec-08 07:30N 53°44' W 000°16'714.3
2017-Dec-08 07:00N 53°38' W 000°09'816.8
2017-Dec-08 06:31N 53°35' E 000°04'815.4
2017-Dec-08 06:01N 53°32' E 000°16'3015.7
2017-Dec-08 04:04N 53°10' E 000°52'117.7
2017-Dec-08 03:59N 53°09' E 000°54'817.5
2017-Dec-08 03:30N 53°03' E 001°04'917.1
2017-Dec-08 03:01N 52°60' E 001°17'917.2
2017-Dec-08 02:30N 52°56' E 001°30'816.5
2017-Dec-08 02:00N 52°51' E 001°41'816.0
2017-Dec-08 01:30N 52°46' E 001°51'815.3
2017-Dec-08 01:01N 52°40' E 001°59'7015.0
2017-Dec-07 20:23N 51°37' E 002°46'514.7
2017-Dec-07 20:00N 51°33' E 002°51'815.0
2017-Dec-07 19:30N 51°27' E 002°59'815.2
2017-Dec-07 19:00N 51°23' E 003°09'3 5.7
2017-Dec-07 18:30N 51°20' E 003°11'0 0.0
2017-Dec-07 18:00N 51°20' E 003°11'0 0.0
2017-Dec-07 17:30N 51°20' E 003°11'0 0.0
2017-Dec-07 16:59N 51°20' E 003°11'0 0.0
2017-Dec-07 16:29N 51°20' E 003°11'0 0.0
2017-Dec-07 15:59N 51°20' E 003°11'0 0.0
2017-Dec-07 15:29N 51°20' E 003°11'0 0.0
2017-Dec-07 14:58N 51°20' E 003°11'0 0.0
2017-Dec-07 14:28N 51°20' E 003°11'0 0.0
2017-Dec-07 13:58N 51°20' E 003°11'0 0.0
2017-Dec-07 13:28N 51°20' E 003°11'0 0.0
2017-Dec-07 12:57N 51°20' E 003°11'0 0.0
2017-Dec-07 12:30N 51°20' E 003°11'0 0.0
2017-Dec-07 12:00N 51°20' E 003°11'0 0.0
2017-Dec-07 11:27N 51°20' E 003°11'0 0.0
2017-Dec-07 11:00N 51°20' E 003°11'0 0.0
2017-Dec-07 10:29N 51°20' E 003°11'0 0.0
2017-Dec-07 09:59N 51°20' E 003°11'0 0.0
2017-Dec-07 09:26N 51°20' E 003°11'0 0.0
2017-Dec-07 08:59N 51°20' E 003°11'0 0.0
2017-Dec-07 08:30N 51°20' E 003°11'1 2.9
2017-Dec-07 08:00N 51°22' E 003°11'714.8
2017-Dec-07 07:31N 51°25' E 003°01'816.3
2017-Dec-07 07:01N 51°30' E 002°50'1315.3
2017-Dec-07 06:10N 51°40' E 002°38'414.6
2017-Dec-07 05:53N 51°44' E 002°36'4713.7
2017-Dec-07 02:26N 52°28' E 002°08'614.5
2017-Dec-07 02:01N 52°34' E 002°03'714.7
2017-Dec-07 01:31N 52°40' E 001°57'815.4
2017-Dec-07 01:00N 52°46' E 001°50'917.4
2017-Dec-07 00:31N 52°51' E 001°38'917.4
2017-Dec-07 00:01N 52°56' E 001°26'917.8
2017-Dec-06 23:30N 53°00' E 001°13'918.0
2017-Dec-06 23:00N 53°05' E 001°01'3517.1
2017-Dec-06 20:56N 53°30' E 000°18'  
2017-Dec-04 10:29N 53°45' W 000°16'0 0.0
2017-Dec-04 09:59N 53°45' W 000°16'0 0.0
2017-Dec-04 09:28N 53°45' W 000°16'0 0.0
2017-Dec-04 08:58N 53°45' W 000°16'0 0.0
2017-Dec-04 08:30N 53°45' W 000°16'0 0.2
2017-Dec-04 08:00N 53°44' W 000°16'0 0.9
2017-Dec-04 07:30N 53°44' W 000°16'612.6
2017-Dec-04 07:00N 53°39' W 000°10'714.7
2017-Dec-04 06:30N 53°35' E 000°01'815.2
2017-Dec-04 06:01N 53°33' E 000°13'3213.2
2017-Dec-04 03:36N 53°19' E 001°01'114.2
2017-Dec-04 03:31N 53°18' E 001°02'714.3
2017-Dec-04 03:01N 53°13' E 001°10'815.3
2017-Dec-04 02:31N 53°07' E 001°18'816.3
2017-Dec-04 02:01N 53°01' E 001°27'917.1
2017-Dec-04 01:31N 52°55' E 001°38'917.1
2017-Dec-04 01:00N 52°49' E 001°48'816.2
2017-Dec-04 00:31N 52°44' E 001°58'816.4
2017-Dec-04 00:01N 52°37' E 002°04'815.2
2017-Dec-03 23:30N 52°30' E 002°10'5913.8
2017-Dec-03 19:15N 51°36' E 002°47'415.3
2017-Dec-03 19:00N 51°33' E 002°51'815.9
2017-Dec-03 18:30N 51°27' E 002°59'816.4
2017-Dec-03 18:00N 51°23' E 003°10'2 4.5
2017-Dec-03 17:29N 51°20' E 003°11'0 0.0
2017-Dec-03 16:59N 51°20' E 003°11'0 0.0
2017-Dec-03 16:29N 51°20' E 003°11'0 0.0
2017-Dec-03 15:57N 51°20' E 003°11'0 0.0
2017-Dec-03 15:28N 51°20' E 003°11'0 0.0
2017-Dec-03 14:58N 51°20' E 003°11'0 0.0
2017-Dec-03 14:28N 51°20' E 003°11'0 0.0
2017-Dec-03 14:01N 51°20' E 003°11'0 0.0
2017-Dec-03 13:30N 51°20' E 003°11'0 0.0
2017-Dec-03 13:00N 51°20' E 003°11'0 0.0
2017-Dec-03 12:30N 51°20' E 003°11'0 0.0
2017-Dec-03 12:00N 51°20' E 003°11'0 0.0
2017-Dec-03 11:29N 51°20' E 003°11'0 0.0
2017-Dec-03 10:56N 51°20' E 003°11'0 0.0
2017-Dec-03 10:29N 51°20' E 003°11'0 0.0
2017-Dec-03 09:59N 51°20' E 003°11'0 0.0
2017-Dec-03 09:29N 51°20' E 003°11'0 0.0
2017-Dec-03 08:58N 51°20' E 003°11'0 0.0
2017-Dec-03 08:30N 51°20' E 003°11'2 4.5
2017-Dec-03 08:01N 51°23' E 003°10'713.8
2017-Dec-03 07:30N 51°25' E 002°60'713.6
2017-Dec-03 07:00N 51°29' E 002°51'914.4
2017-Dec-03 06:23N 51°35' E 002°41'5714.7
2017-Dec-03 02:31N 52°28' E 002°08'114.8
2017-Dec-03 02:25N 52°30' E 002°07'614.7
2017-Dec-03 02:00N 52°35' E 002°03'714.4
2017-Dec-03 01:30N 52°41' E 001°57'713.9
2017-Dec-03 01:00N 52°47' E 001°50'714.5
2017-Dec-03 00:30N 52°51' E 001°40'714.1
2017-Dec-03 00:00N 52°55' E 001°31'714.3
2017-Dec-02 23:30N 52°58' E 001°20'714.9
2017-Dec-02 23:00N 53°01' E 001°08'3915.1
2017-Dec-02 20:25N 53°29' E 000°22'615.0
2017-Dec-02 20:00N 53°32' E 000°14'918.6
2017-Dec-02 19:30N 53°35' W 000°01'917.6
2017-Dec-02 19:00N 53°41' W 000°13'4 8.8
2017-Dec-02 18:30N 53°44' W 000°16'0 0.2
2017-Dec-02 18:01N 53°45' W 000°16'0 0.0
2017-Dec-02 17:30N 53°45' W 000°16'0 0.0
2017-Dec-02 17:00N 53°45' W 000°16'0 0.0
2017-Dec-02 16:30N 53°45' W 000°16'0 0.0
2017-Dec-02 16:01N 53°45' W 000°16'0 0.0
2017-Dec-02 15:30N 53°45' W 000°16'0 0.0
2017-Dec-02 15:00N 53°45' W 000°16'0 0.0
2017-Dec-02 14:30N 53°45' W 000°16'0 0.0
2017-Dec-02 14:00N 53°45' W 000°16'0 0.0
2017-Dec-02 13:30N 53°45' W 000°16'0 0.0
2017-Dec-02 13:00N 53°45' W 000°16'0 0.0
2017-Dec-02 12:30N 53°45' W 000°16'0 0.0
2017-Dec-02 12:00N 53°45' W 000°16'0 0.0
2017-Dec-02 11:30N 53°45' W 000°16'0 0.0
2017-Dec-02 11:00N 53°45' W 000°16'0 0.0
2017-Dec-02 10:30N 53°45' W 000°16'0 0.0
2017-Dec-02 10:00N 53°45' W 000°16'0 0.0
2017-Dec-02 09:30N 53°45' W 000°16'0 0.5
2017-Dec-02 09:00N 53°45' W 000°16'0 0.6
2017-Dec-02 08:30N 53°44' W 000°16'2 4.9
2017-Dec-02 08:00N 53°42' W 000°14'510.7
2017-Dec-02 07:30N 53°38' W 000°09'611.9
2017-Dec-02 07:00N 53°35' W 000°00'612.5
2017-Dec-02 06:30N 53°33' E 000°10'914.4
2017-Dec-02 05:52N 53°29' E 000°24'2514.1
2017-Dec-02 04:06N 53°11' E 000°51'113.8
2017-Dec-02 04:00N 53°10' E 000°53'712.3
2017-Dec-02 03:25N 53°05' E 001°02'512.4
2017-Dec-02 03:00N 53°02' E 001°09'713.5
2017-Dec-02 02:30N 52°59' E 001°19'713.9
2017-Dec-02 02:01N 52°56' E 001°29'815.1
2017-Dec-02 01:31N 52°53' E 001°40'815.4
2017-Dec-02 01:01N 52°48' E 001°51'816.0
2017-Dec-02 00:31N 52°42' E 001°58'815.7
2017-Dec-02 00:01N 52°35' E 002°04'4915.2
2017-Dec-01 20:48N 51°50' E 002°35'514.7
2017-Dec-01 20:29N 51°45' E 002°38'715.3
2017-Dec-01 20:00N 51°39' E 002°44'715.2
2017-Dec-01 19:30N 51°33' E 002°51'815.3
2017-Dec-01 19:00N 51°27' E 002°58'714.3
2017-Dec-01 18:31N 51°24' E 003°09'4 7.5
2017-Dec-01 18:01N 51°20' E 003°12'0 0.4
2017-Dec-01 17:28N 51°20' E 003°11'  

Dump ship's entire track history